createdAt,value
2018-12-25T00:00:14.779Z,4.29
2018-12-25T00:01:14.659Z,4.26
2018-12-25T00:03:18.681Z,4.24
2018-12-25T00:04:18.571Z,4.26
2018-12-25T00:06:22.579Z,4.21
2018-12-25T00:07:22.560Z,4.25
2018-12-25T00:09:27.418Z,4.25
2018-12-25T00:10:27.330Z,4.21
2018-12-25T00:12:31.279Z,4.32
2018-12-25T00:13:31.239Z,4.26
2018-12-25T00:15:35.241Z,4.26
2018-12-25T00:16:35.150Z,4.32
2018-12-25T00:18:39.147Z,4.37
2018-12-25T00:19:39.048Z,4.37
2018-12-25T00:21:43.072Z,4.34
2018-12-25T00:22:42.960Z,4.26
2018-12-25T00:24:35.908Z,4.25
2018-12-25T00:25:35.798Z,4.32
2018-12-25T00:27:39.818Z,4.26
2018-12-25T00:28:39.788Z,4.34
2018-12-25T00:30:43.729Z,4.36
2018-12-25T00:31:43.628Z,4.32
2018-12-25T00:33:48.091Z,4.37
2018-12-25T00:34:48.138Z,4.33
2018-12-25T00:36:52.064Z,4.32
2018-12-25T00:37:51.958Z,4.29
2018-12-25T00:39:55.972Z,4.36
2018-12-25T00:40:55.867Z,4.37
2018-12-25T00:42:59.877Z,4.34
2018-12-25T00:43:59.778Z,4.39
2018-12-25T00:46:03.788Z,4.26
2018-12-25T00:47:03.788Z,4.32
2018-12-25T00:49:14.790Z,4.28
2018-12-25T00:50:07.680Z,4.34
2018-12-25T00:52:11.607Z,4.34
2018-12-25T00:53:11.511Z,4.26
2018-12-25T00:55:04.398Z,4.26
2018-12-25T00:56:04.371Z,4.29
2018-12-25T00:58:08.370Z,4.26
2018-12-25T00:59:08.268Z,4.26
2018-12-25T01:01:12.276Z,4.21
2018-12-25T01:02:12.180Z,4.19
2018-12-25T01:04:16.127Z,4.24
2018-12-25T01:05:16.087Z,4.21
2018-12-25T01:07:20.098Z,4.26
2018-12-25T01:08:19.997Z,4.24
2018-12-25T01:10:24.006Z,4.19
2018-12-25T01:11:23.979Z,4.18
2018-12-25T01:13:27.917Z,4.26
2018-12-25T01:14:27.818Z,4.28
2018-12-25T01:16:31.768Z,4.22
2018-12-25T01:17:31.739Z,4.19
2018-12-25T01:19:35.752Z,4.22
2018-12-25T01:20:35.643Z,4.26
2018-12-25T01:22:39.659Z,4.22
2018-12-25T01:23:39.558Z,4.21
2018-12-25T01:25:43.568Z,4.26
2018-12-25T01:26:43.457Z,4.32
2018-12-25T01:28:47.467Z,4.24
2018-12-25T01:29:47.380Z,4.22
2018-12-25T01:31:51.389Z,4.26
2018-12-25T01:32:51.348Z,4.21
2018-12-25T01:34:44.240Z,4.25
2018-12-25T01:35:44.161Z,4.19
2018-12-25T01:37:48.237Z,4.19
2018-12-25T01:38:48.150Z,4.26
2018-12-25T01:40:53.079Z,4.19
2018-12-25T01:41:52.967Z,4.22
2018-12-25T01:43:57.908Z,4.16
2018-12-25T01:44:57.809Z,4.26
2018-12-25T01:47:02.739Z,4.28
2018-12-25T01:48:02.638Z,4.26
2018-12-25T01:50:07.576Z,4.24
2018-12-25T01:51:07.469Z,4.24
2018-12-25T01:53:12.398Z,4.28
2018-12-25T01:54:12.305Z,4.21
2018-12-25T01:56:17.236Z,4.29
2018-12-25T01:57:17.129Z,4.28
2018-12-25T01:59:21.078Z,4.28
2018-12-25T02:00:21.039Z,4.29
2018-12-25T02:02:25.095Z,4.34
2018-12-25T02:03:24.960Z,4.28
2018-12-25T02:05:28.968Z,4.34
2018-12-25T02:06:28.866Z,4.37
2018-12-25T02:08:32.881Z,4.40
2018-12-25T02:09:32.768Z,4.34
2018-12-25T02:11:36.786Z,4.36
2018-12-25T02:12:36.679Z,4.34
2018-12-25T02:14:29.672Z,4.36
2018-12-25T02:15:29.597Z,4.32
2018-12-25T02:17:33.546Z,4.37
2018-12-25T02:18:33.462Z,4.34
2018-12-25T02:20:37.404Z,4.39
2018-12-25T02:21:37.349Z,4.36
2018-12-25T02:23:41.371Z,4.34
2018-12-25T02:24:41.266Z,4.44
2018-12-25T02:26:45.267Z,4.43
2018-12-25T02:27:45.177Z,4.42
2018-12-25T02:29:49.185Z,4.59
2018-12-25T02:30:49.099Z,4.43
2018-12-25T02:32:53.037Z,4.61
2018-12-25T02:33:53.006Z,4.43
2018-12-25T02:35:57.000Z,4.54
2018-12-25T02:36:56.984Z,4.46
2018-12-25T02:39:00.928Z,4.61
2018-12-25T02:40:00.826Z,4.62
2018-12-25T02:42:04.757Z,4.67
2018-12-25T02:43:04.727Z,4.62
2018-12-25T02:44:57.691Z,4.57
2018-12-25T02:45:57.576Z,4.64
2018-12-25T02:48:01.590Z,4.67
2018-12-25T02:49:01.487Z,4.57
2018-12-25T02:51:05.498Z,4.61
2018-12-25T02:52:05.397Z,4.57
2018-12-25T02:54:09.411Z,4.58
2018-12-25T02:55:09.377Z,4.61
2018-12-25T02:57:13.315Z,4.61
2018-12-25T02:58:13.217Z,4.58
2018-12-25T03:00:17.230Z,4.70
2018-12-25T03:01:17.126Z,4.62
2018-12-25T03:03:21.079Z,4.61
2018-12-25T03:04:21.036Z,4.65
2018-12-25T03:06:25.049Z,4.58
2018-12-25T03:07:24.947Z,4.67
2018-12-25T03:09:28.957Z,4.69
2018-12-25T03:10:28.856Z,4.58
2018-12-25T03:12:32.878Z,4.57
2018-12-25T03:13:32.765Z,4.58
2018-12-25T03:15:36.775Z,4.57
2018-12-25T03:16:36.676Z,4.70
2018-12-25T03:18:40.698Z,4.58
2018-12-25T03:19:40.658Z,4.69
2018-12-25T03:21:44.608Z,4.65
2018-12-25T03:22:44.499Z,4.70
2018-12-25T03:24:37.386Z,4.64
2018-12-25T03:25:37.359Z,4.58
2018-12-25T03:27:41.369Z,4.69
2018-12-25T03:28:41.255Z,4.65
2018-12-25T03:30:45.274Z,4.69
2018-12-25T03:31:45.167Z,4.65
2018-12-25T03:33:49.183Z,4.64
2018-12-25T03:34:49.076Z,4.70
2018-12-25T03:36:53.052Z,4.69
2018-12-25T03:37:53.057Z,4.64
2018-12-25T03:39:57.009Z,4.76
2018-12-25T03:40:56.896Z,4.76
2018-12-25T03:43:00.917Z,4.76
2018-12-25T03:44:00.823Z,4.64
2018-12-25T03:46:04.759Z,4.72
2018-12-25T03:47:04.790Z,4.75
2018-12-25T03:49:08.728Z,4.67
2018-12-25T03:50:10.807Z,4.77
2018-12-25T03:52:13.507Z,4.65
2018-12-25T03:53:13.480Z,4.76
2018-12-25T03:55:18.401Z,4.72
2018-12-25T03:56:18.302Z,4.76
2018-12-25T03:58:23.227Z,4.75
2018-12-25T03:59:23.119Z,4.70
2018-12-25T04:01:28.058Z,4.75
2018-12-25T04:02:27.957Z,4.73
2018-12-25T04:04:20.911Z,4.77
2018-12-25T04:05:20.807Z,4.75
2018-12-25T04:07:25.738Z,4.84
2018-12-25T04:08:25.637Z,4.77
2018-12-25T04:10:29.658Z,4.76
2018-12-25T04:11:29.547Z,4.73
2018-12-25T04:13:34.069Z,4.77
2018-12-25T04:14:33.966Z,4.79
2018-12-25T04:16:38.001Z,4.76
2018-12-25T04:17:37.888Z,4.80
2018-12-25T04:19:41.910Z,4.77
2018-12-25T04:20:41.788Z,4.77
2018-12-25T04:22:46.720Z,4.67
2018-12-25T04:23:46.631Z,4.75
2018-12-25T04:25:50.639Z,4.75
2018-12-25T04:26:50.535Z,4.73
2018-12-25T04:28:54.536Z,4.75
2018-12-25T04:29:54.436Z,4.75
2018-12-25T04:31:58.445Z,4.70
2018-12-25T04:32:58.360Z,4.75
2018-12-25T04:34:51.295Z,4.72
2018-12-25T04:35:51.298Z,4.70
2018-12-25T04:37:55.209Z,4.77
2018-12-25T04:38:55.107Z,4.77
2018-12-25T04:40:59.115Z,4.75
2018-12-25T04:41:59.019Z,4.73
2018-12-25T04:44:03.038Z,4.79
2018-12-25T04:45:02.926Z,4.77
2018-12-25T04:47:06.888Z,4.75
2018-12-25T04:48:06.908Z,4.84
2018-12-25T04:50:10.859Z,4.84
2018-12-25T04:51:10.745Z,4.79
2018-12-25T04:53:14.767Z,4.76
2018-12-25T04:54:14.658Z,4.88
2018-12-25T04:56:25.836Z,4.86
2018-12-25T04:57:18.618Z,4.77
2018-12-25T04:59:22.667Z,4.84
2018-12-25T05:00:22.627Z,4.79
2018-12-25T05:02:26.579Z,4.83
2018-12-25T05:03:26.466Z,4.79
2018-12-25T05:05:31.338Z,4.84
2018-12-25T05:06:31.309Z,4.80
2018-12-25T05:08:35.317Z,4.79
2018-12-25T05:09:35.241Z,4.86
2018-12-25T05:11:39.227Z,4.83
2018-12-25T05:12:39.129Z,4.88
2018-12-25T05:14:32.075Z,4.89
2018-12-25T05:15:31.978Z,4.79
2018-12-25T05:17:35.926Z,4.84
2018-12-25T05:18:35.886Z,4.84
2018-12-25T05:20:39.897Z,4.80
2018-12-25T05:21:39.877Z,4.72
2018-12-25T05:23:43.806Z,4.75
2018-12-25T05:24:43.708Z,4.80
2018-12-25T05:26:47.716Z,4.80
2018-12-25T05:27:47.619Z,4.84
2018-12-25T05:29:51.567Z,4.83
2018-12-25T05:30:51.598Z,4.77
2018-12-25T05:31:51.495Z,4.79
2018-12-25T05:32:51.468Z,4.84
2018-12-25T05:33:51.519Z,4.69
2018-12-25T05:34:51.406Z,4.73
2018-12-25T05:35:51.417Z,4.77
2018-12-25T05:36:51.347Z,4.75
2018-12-25T05:37:51.316Z,4.76
2018-12-25T05:38:51.335Z,4.70
2018-12-25T05:39:51.260Z,4.73
2018-12-25T05:40:51.258Z,4.80
2018-12-25T05:41:51.200Z,4.76
2018-12-25T05:42:51.166Z,4.75
2018-12-25T05:43:51.147Z,4.73
2018-12-25T05:44:51.171Z,4.76
2018-12-25T05:45:51.076Z,4.75
2018-12-25T05:46:51.092Z,4.70
2018-12-25T05:47:51.017Z,4.79
2018-12-25T05:48:50.990Z,4.73
2018-12-25T05:49:50.999Z,4.77
2018-12-25T05:50:50.927Z,4.80
2018-12-25T05:51:51.007Z,4.69
2018-12-25T05:52:50.867Z,4.73
2018-12-25T05:53:50.837Z,4.77
2018-12-25T05:54:50.829Z,4.75
2018-12-25T05:55:50.778Z,4.76
2018-12-25T05:56:50.838Z,4.65
2018-12-25T05:57:50.715Z,4.76
2018-12-25T05:58:50.688Z,4.62
2018-12-25T05:59:50.687Z,4.65
2018-12-25T06:00:50.681Z,4.77
2018-12-25T06:01:50.598Z,4.69
2018-12-25T06:02:50.670Z,4.73
2018-12-25T06:03:50.535Z,4.67
2018-12-25T06:04:50.578Z,4.62
2018-12-25T06:05:50.483Z,4.67
2018-12-25T06:06:50.486Z,4.77
2018-12-25T06:07:50.416Z,4.76
2018-12-25T06:08:50.494Z,4.64
2018-12-25T06:09:51.427Z,4.72
2018-12-25T06:10:50.395Z,4.75
2018-12-25T06:11:50.316Z,4.72
2018-12-25T06:12:50.282Z,4.75
2018-12-25T06:13:50.325Z,4.75
2018-12-25T06:14:50.234Z,4.67
2018-12-25T06:15:50.175Z,4.75
2018-12-25T06:16:50.248Z,4.77
2018-12-25T06:17:50.116Z,4.76
2018-12-25T06:18:51.176Z,4.73
2018-12-25T06:19:50.057Z,4.79
2018-12-25T06:20:55.095Z,4.64
2018-12-25T06:21:50.008Z,4.76
2018-12-25T06:22:50.075Z,4.67
2018-12-25T06:23:49.935Z,4.67
2018-12-25T06:24:49.998Z,4.64
2018-12-25T06:25:49.878Z,4.61
2018-12-25T06:26:49.898Z,4.69
2018-12-25T06:27:49.832Z,4.73
2018-12-25T06:28:49.806Z,4.70
2018-12-25T06:29:49.761Z,4.65
2018-12-25T06:30:49.740Z,4.67
2018-12-25T06:31:49.700Z,4.65
2018-12-25T06:32:49.726Z,4.72
2018-12-25T06:33:49.635Z,4.61
2018-12-25T06:34:49.650Z,4.64
2018-12-25T06:35:49.580Z,4.69
2018-12-25T06:36:49.657Z,4.70
2018-12-25T06:37:49.517Z,4.69
2018-12-25T06:38:49.567Z,4.57
2018-12-25T06:39:49.459Z,4.70
2018-12-25T06:40:49.475Z,4.69
2018-12-25T06:41:49.395Z,4.58
2018-12-25T06:42:49.388Z,4.69
2018-12-25T06:43:49.337Z,4.64
2018-12-25T06:44:49.396Z,4.64
2018-12-25T06:45:49.278Z,4.75
2018-12-25T06:46:49.246Z,4.62
2018-12-25T06:47:49.315Z,4.72
2018-12-25T06:48:49.186Z,4.67
2018-12-25T06:49:49.225Z,4.65
2018-12-25T06:50:49.125Z,4.70
2018-12-25T06:51:49.096Z,4.67
2018-12-25T06:52:49.072Z,4.67
2018-12-25T06:53:49.148Z,4.61
2018-12-25T06:54:49.007Z,4.69
2018-12-25T06:55:49.058Z,4.65
2018-12-25T06:56:48.953Z,4.69
2018-12-25T06:57:48.965Z,4.69
2018-12-25T06:58:48.886Z,4.58
2018-12-25T06:59:48.878Z,4.67
2018-12-25T07:00:48.826Z,4.65
2018-12-25T07:01:48.889Z,4.67
2018-12-25T07:02:48.777Z,4.70
2018-12-25T07:03:48.807Z,4.59
2018-12-25T07:04:48.707Z,4.61
2018-12-25T07:05:48.707Z,4.61
2018-12-25T07:06:50.544Z,4.64
2018-12-25T07:07:48.615Z,4.57
2018-12-25T07:08:48.598Z,4.55
2018-12-25T07:09:48.624Z,4.59
2018-12-25T07:10:48.525Z,4.62
2018-12-25T07:11:48.585Z,4.61
2018-12-25T07:12:48.470Z,4.61
2018-12-25T07:13:48.435Z,4.61
2018-12-25T07:14:48.456Z,4.62
2018-12-25T07:15:48.376Z,4.65
2018-12-25T07:16:48.364Z,4.61
2018-12-25T07:17:48.325Z,4.59
2018-12-25T07:18:48.285Z,4.64
2018-12-25T07:19:49.311Z,4.61
2018-12-25T07:20:48.227Z,4.62
2018-12-25T07:21:48.297Z,4.58
2018-12-25T07:22:48.167Z,4.59
2018-12-25T07:23:48.138Z,4.59
2018-12-25T07:24:48.122Z,4.61
2018-12-25T07:25:48.138Z,4.62
2018-12-25T07:26:48.051Z,4.59
2018-12-25T07:27:48.024Z,4.67
2018-12-25T07:28:47.985Z,4.61
2018-12-25T07:29:48.036Z,4.62
2018-12-25T07:30:47.926Z,4.65
2018-12-25T07:31:47.954Z,4.65
2018-12-25T07:32:47.871Z,4.58
2018-12-25T07:33:47.857Z,4.61
2018-12-25T07:34:47.804Z,4.58
2018-12-25T07:35:47.876Z,4.61
2018-12-25T07:36:47.745Z,4.57
2018-12-25T07:37:47.785Z,4.57
2018-12-25T07:38:47.674Z,4.42
2018-12-25T07:39:47.655Z,4.57
2018-12-25T07:40:47.695Z,4.43
2018-12-25T07:41:47.596Z,4.61
2018-12-25T07:42:47.604Z,4.46
2018-12-25T07:43:47.545Z,4.58
2018-12-25T07:44:47.505Z,4.61
2018-12-25T07:45:47.466Z,4.42
2018-12-25T07:46:47.534Z,4.57
2018-12-25T07:47:47.417Z,4.44
2018-12-25T07:48:47.444Z,4.40
2018-12-25T07:49:47.345Z,4.43
2018-12-25T07:50:47.366Z,4.46
2018-12-25T07:51:47.286Z,4.47
2018-12-25T07:52:47.366Z,4.52
2018-12-25T07:53:47.228Z,4.51
2018-12-25T07:54:47.312Z,4.47
2018-12-25T07:55:47.175Z,4.44
2018-12-25T07:56:47.145Z,4.42
2018-12-25T07:57:47.185Z,4.43
2018-12-25T07:58:47.075Z,4.46
2018-12-25T07:59:47.115Z,4.42
2018-12-25T08:00:47.105Z,4.33
2018-12-25T08:01:46.984Z,4.32
2018-12-25T08:02:47.016Z,4.39
2018-12-25T08:03:46.927Z,4.32
2018-12-25T08:04:46.928Z,4.44
2018-12-25T08:05:46.866Z,4.37
2018-12-25T08:06:46.938Z,4.36
2018-12-25T08:07:46.804Z,4.42
2018-12-25T08:08:46.858Z,4.29
2018-12-25T08:09:46.746Z,4.34
2018-12-25T08:10:46.760Z,4.33
2018-12-25T08:11:46.685Z,4.39
2018-12-25T08:12:46.677Z,4.39
2018-12-25T08:13:46.638Z,4.42
2018-12-25T08:14:46.686Z,4.39
2018-12-25T08:15:46.565Z,4.36
2018-12-25T08:16:46.547Z,4.44
2018-12-25T08:17:46.506Z,4.46
2018-12-25T08:18:46.506Z,4.51
2018-12-25T08:19:46.462Z,4.37
2018-12-25T08:20:46.516Z,4.44
2018-12-25T08:21:46.442Z,4.44
2018-12-25T08:22:46.426Z,4.34
2018-12-25T08:23:46.326Z,4.39
2018-12-25T08:24:46.338Z,4.40
2018-12-25T08:25:46.297Z,4.44
2018-12-25T08:26:46.253Z,4.43
2018-12-25T08:27:46.205Z,4.40
2018-12-25T08:28:46.258Z,4.34
2018-12-25T08:29:46.134Z,4.36
2018-12-25T08:30:46.166Z,4.46
2018-12-25T08:31:46.089Z,4.37
2018-12-25T08:32:46.139Z,4.43
2018-12-25T08:33:46.017Z,4.36
2018-12-25T08:34:46.110Z,4.46
2018-12-25T08:35:45.966Z,4.37
2018-12-25T08:36:46.017Z,4.40
2018-12-25T08:37:46.005Z,4.36
2018-12-25T08:38:45.907Z,4.50
2018-12-25T08:39:45.988Z,4.42
2018-12-25T08:40:45.807Z,4.37
2018-12-25T08:41:45.894Z,4.40
2018-12-25T08:42:45.746Z,4.37
2018-12-25T08:43:45.715Z,4.42
2018-12-25T08:44:45.822Z,4.46
2018-12-25T08:45:45.656Z,4.50
2018-12-25T08:46:45.738Z,4.37
2018-12-25T08:47:45.596Z,4.51
2018-12-25T08:48:45.577Z,4.50
2018-12-25T08:49:45.648Z,4.46
2018-12-25T08:50:45.508Z,4.44
2018-12-25T08:51:45.657Z,4.44
2018-12-25T08:52:45.448Z,4.47
2018-12-25T08:53:45.426Z,4.44
2018-12-25T08:54:45.386Z,4.47
2018-12-25T08:55:47.291Z,4.46
2018-12-25T08:56:45.325Z,4.42
2018-12-25T08:57:45.396Z,4.46
2018-12-25T08:58:45.265Z,4.47
2018-12-25T08:59:45.246Z,4.46
2018-12-25T09:00:45.306Z,4.51
2018-12-25T09:01:45.188Z,4.39
2018-12-25T09:02:45.328Z,4.42
2018-12-25T09:03:45.105Z,4.42
2018-12-25T09:04:45.097Z,4.54
2018-12-25T09:05:45.247Z,4.43
2018-12-25T09:06:45.031Z,4.46
2018-12-25T09:07:45.154Z,4.44
2018-12-25T09:08:44.956Z,4.61
2018-12-25T09:09:44.927Z,4.55
2018-12-25T09:10:44.896Z,4.46
2018-12-25T09:11:44.976Z,4.59
2018-12-25T09:12:44.850Z,4.57
2018-12-25T09:13:44.998Z,4.59
2018-12-25T09:14:44.765Z,4.62
2018-12-25T09:15:44.808Z,4.65
2018-12-25T09:16:44.721Z,4.65
2018-12-25T09:17:44.818Z,4.61
2018-12-25T09:18:44.659Z,4.64
2018-12-25T09:19:44.830Z,4.70
2018-12-25T09:20:44.595Z,4.67
2018-12-25T09:21:46.403Z,4.77
2018-12-25T09:22:44.535Z,4.64
2018-12-25T09:23:44.656Z,4.73
2018-12-25T09:24:44.476Z,4.67
2018-12-25T09:25:44.446Z,4.67
2018-12-25T09:26:44.415Z,4.76
2018-12-25T09:27:44.575Z,4.75
2018-12-25T09:28:44.358Z,4.75
2018-12-25T09:29:44.496Z,4.67
2018-12-25T09:30:44.297Z,4.79
2018-12-25T09:31:44.407Z,4.70
2018-12-25T09:32:44.227Z,4.77
2018-12-25T09:33:44.415Z,4.77
2018-12-25T09:34:44.177Z,4.83
2018-12-25T09:35:44.337Z,4.84
2018-12-25T09:36:44.118Z,4.91
2018-12-25T09:37:44.239Z,4.94
2018-12-25T09:38:44.068Z,4.88
2018-12-25T09:39:44.047Z,4.89
2018-12-25T09:40:43.995Z,4.98
2018-12-25T09:41:43.967Z,4.98
2018-12-25T09:42:44.076Z,5.01
2018-12-25T09:43:43.905Z,5.04
2018-12-25T09:44:43.986Z,5.02
2018-12-25T09:45:43.846Z,5.09
2018-12-25T09:46:43.815Z,5.14
2018-12-25T09:47:43.788Z,5.16
2018-12-25T09:48:43.818Z,5.02
2018-12-25T09:49:43.724Z,5.19
2018-12-25T09:50:43.816Z,5.12
2018-12-25T09:51:43.669Z,5.10
2018-12-25T09:52:43.735Z,5.17
2018-12-25T09:53:43.608Z,5.13
2018-12-25T09:54:43.648Z,5.04
2018-12-25T09:55:43.544Z,5.17
2018-12-25T09:56:43.557Z,5.19
2018-12-25T09:57:43.575Z,5.16
2018-12-25T09:58:43.455Z,5.17
2018-12-25T09:59:43.476Z,5.10
2018-12-25T10:00:43.396Z,5.17
2018-12-25T10:01:43.485Z,5.16
2018-12-25T10:02:43.396Z,5.16
2018-12-25T10:03:43.306Z,5.13
2018-12-25T10:04:43.429Z,5.17
2018-12-25T10:05:43.246Z,5.16
2018-12-25T10:06:43.329Z,5.13
2018-12-25T10:07:43.197Z,5.14
2018-12-25T10:08:43.224Z,5.13
2018-12-25T10:09:43.134Z,5.22
2018-12-25T10:10:43.259Z,5.17
2018-12-25T10:11:44.575Z,5.13
2018-12-25T10:12:43.158Z,5.19
2018-12-25T10:13:43.104Z,5.23
2018-12-25T10:14:43.068Z,5.20
2018-12-25T10:15:42.968Z,5.25
2018-12-25T10:16:42.987Z,5.32
2018-12-25T10:17:42.907Z,5.45
2018-12-25T10:18:42.855Z,5.46
2018-12-25T10:19:42.837Z,5.48
2018-12-25T10:20:42.867Z,5.53
2018-12-25T10:21:42.793Z,5.57
2018-12-25T10:22:42.817Z,5.63
2018-12-25T10:23:42.707Z,5.63
2018-12-25T10:24:42.848Z,5.74
2018-12-25T10:25:42.656Z,5.75
2018-12-25T10:26:42.761Z,5.70
2018-12-25T10:27:42.600Z,5.81
2018-12-25T10:28:42.656Z,5.77
2018-12-25T10:29:42.538Z,5.74
2018-12-25T10:30:42.627Z,5.66
2018-12-25T10:31:42.477Z,5.66
2018-12-25T10:32:42.536Z,5.60
2018-12-25T10:33:42.416Z,5.64
2018-12-25T10:34:42.415Z,5.68
2018-12-25T10:35:42.365Z,5.73
2018-12-25T10:36:42.371Z,5.70
2018-12-25T10:37:42.295Z,5.78
2018-12-25T10:38:42.427Z,5.73
2018-12-25T10:39:42.431Z,5.83
2018-12-25T10:40:42.216Z,5.77
2018-12-25T10:41:42.337Z,5.75
2018-12-25T10:42:42.158Z,5.83
2018-12-25T10:43:42.247Z,5.82
2018-12-25T10:44:42.099Z,5.81
2018-12-25T10:45:42.181Z,5.78
2018-12-25T10:46:42.073Z,5.88
2018-12-25T10:47:42.176Z,6.40
2018-12-25T10:48:41.991Z,7.19
2018-12-25T10:49:42.091Z,7.49
2018-12-25T10:50:42.096Z,7.85
2018-12-25T10:51:41.903Z,7.89
2018-12-25T10:52:42.015Z,8.11
2018-12-25T10:53:41.837Z,8.28
2018-12-25T10:54:41.917Z,8.47
2018-12-25T10:55:41.925Z,8.65
2018-12-25T10:56:41.756Z,8.91
2018-12-25T10:57:41.767Z,8.65
2018-12-25T10:58:41.708Z,8.36
2018-12-25T10:59:41.777Z,8.29
2018-12-25T11:00:41.657Z,8.12
2018-12-25T11:01:49.209Z,7.84
2018-12-25T11:03:45.880Z,7.59
2018-12-25T11:04:45.663Z,7.55
2018-12-25T11:06:49.756Z,7.58
2018-12-25T11:07:49.857Z,7.37
2018-12-25T11:09:53.735Z,7.17
2018-12-25T11:10:53.875Z,6.99
2018-12-25T11:12:57.916Z,7.05
2018-12-25T11:13:57.715Z,7.05
2018-12-25T11:16:01.939Z,7.17
2018-12-25T11:17:01.907Z,7.38
2018-12-25T11:19:05.964Z,7.09
2018-12-25T11:20:11.438Z,7.02
2018-12-25T11:22:09.806Z,6.99
2018-12-25T11:23:09.755Z,6.89
2018-12-25T11:25:02.744Z,6.83
2018-12-25T11:26:02.717Z,6.86
2018-12-25T11:28:06.934Z,6.84
2018-12-25T11:29:06.727Z,6.95
2018-12-25T11:31:10.949Z,7.13
2018-12-25T11:32:10.745Z,7.05
2018-12-25T11:34:14.975Z,7.35
2018-12-25T11:35:14.754Z,7.38
2018-12-25T11:37:18.998Z,8.88
2018-12-25T11:38:18.945Z,8.81
2018-12-25T11:40:12.140Z,8.29
2018-12-25T11:41:11.942Z,8.12
2018-12-25T11:43:16.048Z,7.82
2018-12-25T11:44:15.946Z,7.81
2018-12-25T11:46:20.165Z,7.84
2018-12-25T11:47:19.983Z,8.21
2018-12-25T11:49:24.015Z,8.90
2018-12-25T11:50:24.045Z,8.90
2018-12-25T11:52:28.505Z,8.69
2018-12-25T11:53:28.003Z,8.94
2018-12-25T11:55:32.107Z,10.32
2018-12-25T11:56:32.015Z,10.71
2018-12-25T11:58:36.229Z,11.31
2018-12-25T11:59:36.209Z,11.46
2018-12-25T12:01:40.257Z,11.28
2018-12-25T12:02:40.156Z,11.49
2018-12-25T12:04:33.199Z,11.25
2018-12-25T12:05:33.106Z,11.57
2018-12-25T12:07:37.215Z,10.96
2018-12-25T12:08:37.115Z,10.76
2018-12-25T12:10:41.176Z,10.43
2018-12-25T12:11:41.207Z,10.63
2018-12-25T12:13:45.236Z,9.97
2018-12-25T12:14:45.157Z,9.64
2018-12-25T12:16:49.267Z,9.70
2018-12-25T12:17:49.167Z,9.49
2018-12-25T12:19:53.289Z,9.39
2018-12-25T12:20:53.245Z,9.60
2018-12-25T12:22:57.796Z,9.67
2018-12-25T12:23:57.715Z,9.63
2018-12-25T12:26:01.756Z,9.39
2018-12-25T12:27:01.725Z,9.31
2018-12-25T12:29:05.823Z,9.05
2018-12-25T12:30:05.736Z,8.90
2018-12-25T12:32:09.845Z,8.75
2018-12-25T12:33:09.765Z,8.78
2018-12-25T12:35:02.695Z,8.63
2018-12-25T12:36:02.615Z,8.47
2018-12-25T12:38:06.719Z,8.18
2018-12-25T12:39:06.625Z,8.20
2018-12-25T12:41:10.665Z,8.21
2018-12-25T12:42:10.626Z,8.17
2018-12-25T12:44:14.636Z,8.08
2018-12-25T12:45:14.545Z,8.07
2018-12-25T12:47:18.486Z,8.03
2018-12-25T12:48:18.455Z,8.12
2018-12-25T12:50:22.464Z,8.07
2018-12-25T12:51:22.386Z,7.94
2018-12-25T12:53:26.374Z,8.04
2018-12-25T12:54:26.295Z,8.03
2018-12-25T12:56:30.306Z,7.87
2018-12-25T12:57:30.205Z,7.78
2018-12-25T12:59:34.208Z,7.56
2018-12-25T13:00:34.111Z,7.62
2018-12-25T13:02:38.124Z,7.50
2018-12-25T13:03:38.025Z,7.53
2018-12-25T13:05:42.034Z,7.42
2018-12-25T13:06:41.923Z,7.40
2018-12-25T13:08:45.884Z,7.44
2018-12-25T13:09:45.939Z,7.44
2018-12-25T13:11:49.853Z,7.59
2018-12-25T13:12:49.754Z,7.63
2018-12-25T13:14:42.704Z,7.49
2018-12-25T13:15:42.611Z,7.44
2018-12-25T13:17:46.639Z,7.72
2018-12-25T13:18:46.587Z,7.90
2018-12-25T13:20:50.635Z,8.12
2018-12-25T13:21:50.436Z,8.15
2018-12-25T13:23:54.377Z,8.63
2018-12-25T13:24:54.345Z,8.76
2018-12-25T13:26:58.563Z,8.71
2018-12-25T13:27:58.358Z,8.57
2018-12-25T13:30:02.391Z,8.65
2018-12-25T13:31:02.274Z,8.73
2018-12-25T13:33:06.284Z,8.62
2018-12-25T13:34:06.218Z,8.58
2018-12-25T13:36:10.305Z,8.53
2018-12-25T13:37:10.205Z,8.50
2018-12-25T13:39:14.215Z,8.65
2018-12-25T13:40:14.175Z,8.62
2018-12-25T13:42:18.224Z,8.83
2018-12-25T13:43:18.125Z,8.83
2018-12-25T13:45:22.075Z,8.72
2018-12-25T13:46:22.107Z,8.60
2018-12-25T13:48:26.154Z,8.68
2018-12-25T13:49:26.066Z,8.72
2018-12-25T13:51:30.175Z,8.86
2018-12-25T13:52:30.065Z,8.90
2018-12-25T13:54:23.128Z,8.96
2018-12-25T13:55:23.025Z,8.93
2018-12-25T13:57:27.079Z,8.88
2018-12-25T13:58:26.936Z,8.83
2018-12-25T14:00:30.949Z,8.79
2018-12-25T14:01:30.846Z,8.81
2018-12-25T14:03:34.869Z,8.72
2018-12-25T14:04:34.765Z,8.63
2018-12-25T14:05:34.850Z,8.44
2018-12-25T14:06:34.726Z,8.33
2018-12-25T14:07:34.688Z,8.26
2018-12-25T14:08:34.760Z,8.14
2018-12-25T14:09:34.639Z,8.14
2018-12-25T14:10:34.673Z,7.89
2018-12-25T14:11:34.677Z,7.78
2018-12-25T14:12:34.560Z,7.72
2018-12-25T14:13:34.588Z,7.69
2018-12-25T14:14:34.506Z,7.58
2018-12-25T14:15:34.505Z,7.53
2018-12-25T14:16:34.457Z,7.44
2018-12-25T14:17:35.438Z,7.35
2018-12-25T14:18:34.409Z,7.41
2018-12-25T14:19:34.426Z,7.24
2018-12-25T14:20:34.346Z,7.17
2018-12-25T14:21:34.336Z,7.07
2018-12-25T14:22:34.296Z,7.15
2018-12-25T14:23:34.357Z,7.19
2018-12-25T14:24:34.246Z,7.15
2018-12-25T14:25:34.265Z,7.04
2018-12-25T14:26:34.188Z,7.01
2018-12-25T14:27:34.156Z,6.95
2018-12-25T14:28:34.184Z,6.97
2018-12-25T14:29:34.107Z,6.98
2018-12-25T14:30:34.107Z,6.99
2018-12-25T14:31:34.046Z,6.99
2018-12-25T14:32:34.026Z,6.91
2018-12-25T14:33:34.015Z,6.95
2018-12-25T14:34:33.964Z,6.83
2018-12-25T14:35:34.024Z,6.86
2018-12-25T14:36:33.927Z,6.87
2018-12-25T14:37:33.934Z,6.86
2018-12-25T14:38:33.854Z,6.83
2018-12-25T14:39:33.857Z,6.72
2018-12-25T14:40:33.805Z,6.87
2018-12-25T14:41:33.865Z,6.72
2018-12-25T14:42:33.786Z,6.84
2018-12-25T14:43:33.718Z,6.79
2018-12-25T14:44:33.786Z,6.81
2018-12-25T14:45:33.678Z,6.73
2018-12-25T14:46:33.696Z,6.71
2018-12-25T14:47:33.606Z,6.73
2018-12-25T14:48:33.608Z,6.72
2018-12-25T14:49:33.554Z,6.76
2018-12-25T14:50:33.626Z,6.73
2018-12-25T14:51:33.495Z,6.79
2018-12-25T14:52:33.536Z,6.69
2018-12-25T14:53:33.436Z,6.71
2018-12-25T14:54:33.466Z,6.69
2018-12-25T14:55:33.399Z,6.69
2018-12-25T14:56:33.467Z,6.59
2018-12-25T14:57:33.327Z,6.56
2018-12-25T14:58:33.295Z,6.56
2018-12-25T14:59:33.387Z,6.61
2018-12-25T15:00:33.245Z,6.61
2018-12-25T15:01:33.335Z,6.58
2018-12-25T15:02:33.187Z,6.62
2018-12-25T15:03:33.164Z,6.48
2018-12-25T15:04:33.136Z,6.46
2018-12-25T15:05:33.220Z,6.53
2018-12-25T15:06:33.077Z,6.48
2018-12-25T15:07:33.137Z,6.48
2018-12-25T15:08:33.033Z,6.51
2018-12-25T15:09:32.986Z,6.44
2018-12-25T15:10:33.055Z,6.36
2018-12-25T15:11:32.945Z,6.40
2018-12-25T15:12:32.966Z,6.40
2018-12-25T15:13:32.876Z,6.41
2018-12-25T15:14:32.845Z,6.32
2018-12-25T15:15:32.887Z,6.30
2018-12-25T15:16:32.795Z,6.26
2018-12-25T15:17:32.800Z,6.38
2018-12-25T15:18:32.730Z,6.28
2018-12-25T15:19:32.705Z,6.35
2018-12-25T15:20:32.674Z,6.30
2018-12-25T15:21:32.717Z,6.25
2018-12-25T15:22:32.615Z,6.35
2018-12-25T15:23:32.665Z,6.22
2018-12-25T15:24:32.569Z,6.26
2018-12-25T15:25:33.565Z,6.18
2018-12-25T15:26:32.505Z,6.18
2018-12-25T15:27:32.571Z,6.22
2018-12-25T15:28:32.458Z,6.18
2018-12-25T15:29:32.467Z,6.21
2018-12-25T15:30:32.398Z,6.13
2018-12-25T15:31:32.382Z,6.10
2018-12-25T15:32:32.338Z,6.04
2018-12-25T15:33:32.399Z,6.00
2018-12-25T15:34:32.288Z,6.00
2018-12-25T15:35:32.257Z,5.96
2018-12-25T15:36:32.316Z,5.96
2018-12-25T15:37:32.197Z,6.00
2018-12-25T15:38:32.229Z,5.92
2018-12-25T15:39:32.139Z,5.93
2018-12-25T15:40:32.112Z,5.91
2018-12-25T15:41:32.075Z,5.86
2018-12-25T15:42:32.151Z,5.86
2018-12-25T15:43:32.018Z,5.89
2018-12-25T15:44:32.061Z,5.86
2018-12-25T15:45:31.957Z,5.91
2018-12-25T15:46:31.976Z,5.86
2018-12-25T15:47:31.895Z,5.81
2018-12-25T15:48:31.987Z,5.81
2018-12-25T15:49:31.857Z,5.81
2018-12-25T15:50:31.897Z,5.82
2018-12-25T15:51:31.792Z,5.78
2018-12-25T15:52:31.806Z,5.78
2018-12-25T15:53:36.888Z,5.75
2018-12-25T15:54:31.730Z,5.77
2018-12-25T15:55:31.679Z,5.82
2018-12-25T15:56:31.645Z,5.77
2018-12-25T15:57:31.618Z,5.73
2018-12-25T15:58:33.807Z,5.73
2018-12-25T15:59:31.555Z,5.75
2018-12-25T16:00:32.077Z,5.63
2018-12-25T16:01:31.568Z,5.63
2018-12-25T16:02:31.478Z,5.66
2018-12-25T16:03:31.480Z,5.60
2018-12-25T16:04:31.430Z,5.67
2018-12-25T16:05:31.495Z,5.67
2018-12-25T16:06:31.356Z,5.60
2018-12-25T16:07:31.408Z,5.64
2018-12-25T16:08:31.296Z,5.66
2018-12-25T16:09:31.317Z,5.52
2018-12-25T16:10:31.245Z,5.57
2018-12-25T16:11:31.226Z,5.64
2018-12-25T16:12:31.179Z,5.59
2018-12-25T16:13:31.248Z,5.52
2018-12-25T16:14:31.117Z,5.55